createdAt,value
2019-03-25T00:02:15.576Z,68.73
2019-03-25T00:04:47.945Z,69.21
2019-03-25T00:07:21.339Z,69.53
2019-03-25T00:09:53.971Z,69.18
2019-03-25T00:12:26.291Z,69.74
2019-03-25T00:14:59.336Z,70.20
2019-03-25T00:17:32.154Z,69.99
2019-03-25T00:20:06.050Z,70.20
2019-03-25T00:22:40.084Z,69.88
2019-03-25T00:25:12.703Z,70.01
2019-03-25T00:27:45.188Z,70.19
2019-03-25T00:30:17.471Z,70.58
2019-03-25T00:32:51.483Z,70.58
2019-03-25T00:35:24.346Z,70.79
2019-03-25T00:37:59.498Z,70.07
2019-03-25T00:40:33.590Z,69.20
2019-03-25T00:43:07.982Z,69.04
2019-03-25T00:45:40.617Z,68.40
2019-03-25T00:48:15.345Z,68.48
2019-03-25T00:50:47.774Z,68.56
2019-03-25T00:53:20.759Z,68.39
2019-03-25T00:55:54.694Z,68.20
2019-03-25T00:58:28.976Z,68.30
2019-03-25T01:01:02.278Z,68.29
2019-03-25T01:03:35.379Z,69.32
2019-03-25T01:06:08.271Z,70.25
2019-03-25T01:08:41.239Z,73.06
2019-03-25T01:11:13.575Z,74.51
2019-03-25T01:13:47.728Z,74.32
2019-03-25T01:16:22.976Z,74.22
2019-03-25T01:18:55.681Z,74.12
2019-03-25T01:21:28.542Z,74.19
2019-03-25T01:24:01.094Z,74.06
2019-03-25T01:26:33.449Z,74.10
2019-03-25T01:29:08.145Z,74.19
2019-03-25T01:31:40.709Z,73.72
2019-03-25T01:34:13.058Z,73.89
2019-03-25T01:36:45.779Z,74.08
2019-03-25T01:39:18.100Z,74.08
2019-03-25T01:41:50.807Z,73.55
2019-03-25T01:44:23.526Z,73.20
2019-03-25T01:46:57.110Z,72.69
2019-03-25T01:49:29.832Z,72.71
2019-03-25T01:52:02.197Z,73.60
2019-03-25T01:54:35.889Z,75.05
2019-03-25T01:57:08.290Z,76.18
2019-03-25T01:59:41.234Z,77.56
2019-03-25T02:02:13.421Z,78.67
2019-03-25T02:04:46.493Z,77.92
2019-03-25T02:07:20.558Z,78.18
2019-03-25T02:09:52.901Z,77.74
2019-03-25T02:12:25.571Z,76.78
2019-03-25T02:14:57.933Z,75.87
2019-03-25T02:17:31.124Z,74.14
2019-03-25T02:20:05.186Z,73.55
2019-03-25T02:22:37.707Z,73.10
2019-03-25T02:25:10.093Z,72.70
2019-03-25T02:27:42.410Z,72.33
2019-03-25T02:30:16.408Z,72.28
2019-03-25T02:32:48.963Z,72.28
2019-03-25T02:35:21.323Z,71.77
2019-03-25T02:37:55.238Z,71.16
2019-03-25T02:40:27.853Z,70.84
2019-03-25T02:43:03.419Z,70.84
2019-03-25T02:45:36.041Z,70.92
2019-03-25T02:48:08.423Z,70.61
2019-03-25T02:50:41.080Z,70.50
2019-03-25T02:53:13.290Z,70.41
2019-03-25T02:55:45.548Z,71.33
2019-03-25T02:58:17.693Z,72.13
2019-03-25T03:00:50.499Z,72.69
2019-03-25T03:03:22.832Z,72.59
2019-03-25T03:05:56.009Z,73.31
2019-03-25T03:08:28.649Z,73.53
2019-03-25T03:11:01.017Z,74.05
2019-03-25T03:13:33.749Z,74.25
2019-03-25T03:16:06.999Z,74.64
2019-03-25T03:18:39.334Z,74.64
2019-03-25T03:21:11.923Z,74.62
2019-03-25T03:23:45.022Z,74.80
2019-03-25T03:26:20.116Z,74.58
2019-03-25T03:28:52.700Z,75.38
2019-03-25T03:31:24.939Z,76.34
2019-03-25T03:33:57.270Z,77.16
2019-03-25T03:36:34.240Z,77.36
2019-03-25T03:39:08.632Z,77.50
2019-03-25T03:41:40.907Z,77.61
2019-03-25T03:44:13.708Z,77.78
2019-03-25T03:46:46.410Z,76.80
2019-03-25T03:49:18.796Z,77.23
2019-03-25T03:51:53.641Z,76.91
2019-03-25T03:54:26.327Z,77.70
2019-03-25T03:57:00.206Z,78.44
2019-03-25T03:59:33.098Z,78.87
2019-03-25T04:02:06.627Z,79.54
2019-03-25T04:04:39.029Z,80.28
2019-03-25T04:07:11.353Z,80.36
2019-03-25T04:09:43.850Z,80.50
2019-03-25T04:12:17.086Z,80.63
2019-03-25T04:14:49.398Z,80.87
2019-03-25T04:17:21.616Z,81.21
2019-03-25T04:19:54.688Z,81.03
2019-03-25T04:22:27.843Z,80.60
2019-03-25T04:25:00.092Z,80.09
2019-03-25T04:27:33.504Z,80.87
2019-03-25T04:30:07.307Z,80.23
2019-03-25T04:32:39.564Z,79.12
2019-03-25T04:35:12.247Z,76.76
2019-03-25T04:37:46.178Z,76.22
2019-03-25T04:40:19.251Z,74.98
2019-03-25T04:42:51.784Z,74.34
2019-03-25T04:45:24.315Z,72.11
2019-03-25T04:47:56.684Z,74.17
2019-03-25T04:50:29.252Z,73.24
2019-03-25T04:53:01.555Z,72.28
2019-03-25T04:55:33.954Z,73.72
2019-03-25T04:58:06.912Z,73.35
2019-03-25T05:00:40.103Z,74.70
2019-03-25T05:03:12.523Z,74.39
2019-03-25T05:05:45.268Z,71.36
2019-03-25T05:08:18.221Z,73.27
2019-03-25T05:10:50.689Z,68.59
2019-03-25T05:13:22.916Z,67.84
2019-03-25T05:15:55.128Z,71.16
2019-03-25T05:18:27.512Z,74.60
2019-03-25T05:20:59.786Z,76.07
2019-03-25T05:23:33.338Z,75.73
2019-03-25T05:26:06.525Z,75.81
2019-03-25T05:28:39.311Z,75.15
2019-03-25T05:31:12.429Z,74.46
2019-03-25T05:33:45.134Z,74.60
2019-03-25T05:36:17.768Z,73.38
2019-03-25T05:38:52.224Z,74.66
2019-03-25T05:41:24.641Z,74.46
2019-03-25T05:43:57.064Z,74.19
2019-03-25T05:46:29.613Z,74.00
2019-03-25T05:49:03.927Z,74.60
2019-03-25T05:51:36.801Z,75.43
2019-03-25T05:54:09.150Z,77.93
2019-03-25T05:56:41.481Z,78.16
2019-03-25T05:59:14.038Z,79.27
2019-03-25T06:01:46.656Z,79.47
2019-03-25T06:04:18.832Z,79.26
2019-03-25T06:06:52.197Z,77.92
2019-03-25T06:09:26.393Z,77.92
2019-03-25T06:11:58.743Z,77.06
2019-03-25T06:14:31.094Z,76.82
2019-03-25T06:17:04.290Z,76.72
2019-03-25T06:19:36.590Z,77.25
2019-03-25T06:22:08.881Z,76.85
2019-03-25T06:24:41.696Z,76.79
2019-03-25T06:27:14.698Z,77.73
2019-03-25T06:29:48.445Z,78.30
2019-03-25T06:32:20.923Z,78.94
2019-03-25T06:34:53.107Z,78.57
2019-03-25T06:37:27.508Z,79.29
2019-03-25T06:40:01.623Z,78.99
2019-03-25T06:42:34.966Z,78.12
2019-03-25T06:45:09.295Z,77.88
2019-03-25T06:47:43.815Z,76.77
2019-03-25T06:50:16.968Z,75.36
2019-03-25T06:52:49.627Z,72.95
2019-03-25T06:55:22.615Z,71.37
2019-03-25T06:57:56.019Z,72.61
2019-03-25T07:00:28.374Z,72.56
2019-03-25T07:03:01.904Z,71.20
2019-03-25T07:05:35.758Z,72.01
2019-03-25T07:08:08.501Z,72.64
2019-03-25T07:10:40.710Z,71.43
2019-03-25T07:13:12.940Z,69.03
2019-03-25T07:15:45.163Z,70.08
2019-03-25T07:18:17.796Z,70.46
2019-03-25T07:20:50.036Z,70.42
2019-03-25T07:23:22.491Z,70.51
2019-03-25T07:25:57.283Z,69.16
2019-03-25T07:28:29.674Z,68.09
2019-03-25T07:31:03.839Z,67.20
2019-03-25T07:33:36.163Z,66.96
2019-03-25T07:36:08.665Z,68.27
2019-03-25T07:38:41.185Z,67.59
2019-03-25T07:41:14.349Z,66.79
2019-03-25T07:43:48.353Z,67.62
2019-03-25T07:46:20.662Z,68.72
2019-03-25T07:48:53.329Z,69.27
2019-03-25T07:51:26.797Z,70.61
2019-03-25T07:53:59.120Z,71.87
2019-03-25T07:56:31.735Z,74.62
2019-03-25T07:59:04.424Z,74.62
2019-03-25T08:01:36.796Z,74.80
2019-03-25T08:04:10.347Z,74.79
2019-03-25T08:06:43.616Z,75.82
2019-03-25T08:09:16.141Z,75.31
2019-03-25T08:11:49.441Z,75.52
2019-03-25T08:14:22.736Z,75.68
2019-03-25T08:16:55.861Z,74.91
2019-03-25T08:19:28.048Z,75.02
2019-03-25T08:22:00.872Z,74.27
2019-03-25T08:24:33.686Z,74.84
2019-03-25T08:27:06.803Z,73.73
2019-03-25T08:29:40.363Z,73.73
2019-03-25T08:32:13.141Z,76.18
2019-03-25T08:34:45.488Z,76.15
2019-03-25T08:37:18.105Z,75.74
2019-03-25T08:39:51.101Z,75.17
2019-03-25T08:42:24.372Z,75.76
2019-03-25T08:44:56.572Z,75.73
2019-03-25T08:47:28.788Z,73.32
2019-03-25T08:50:01.072Z,73.42
2019-03-25T08:52:33.539Z,72.16
2019-03-25T08:55:07.774Z,70.76
2019-03-25T08:57:40.463Z,70.47
2019-03-25T09:00:13.468Z,67.22
2019-03-25T09:02:46.160Z,67.22
2019-03-25T09:05:20.809Z,66.60
2019-03-25T09:07:53.591Z,66.15
2019-03-25T09:10:26.176Z,64.90
2019-03-25T09:13:00.689Z,65.71
2019-03-25T09:15:34.060Z,65.70
2019-03-25T09:18:06.868Z,64.67
2019-03-25T09:20:39.238Z,64.05
2019-03-25T09:23:11.812Z,63.35
2019-03-25T09:25:44.050Z,63.11
2019-03-25T09:28:24.127Z,62.67
2019-03-25T09:31:20.638Z,62.46
2019-03-25T09:33:52.923Z,61.68
2019-03-25T09:36:25.963Z,61.76
2019-03-25T09:39:00.087Z,61.76
2019-03-25T09:41:32.730Z,60.83
2019-03-25T09:44:04.992Z,60.47
2019-03-25T09:46:37.849Z,61.12
2019-03-25T09:49:10.271Z,60.42
2019-03-25T09:51:42.753Z,60.27
2019-03-25T09:54:16.220Z,60.23
2019-03-25T09:56:48.625Z,59.16
2019-03-25T09:59:21.213Z,60.59
2019-03-25T10:01:53.692Z,62.78
2019-03-25T10:04:26.272Z,61.02
2019-03-25T10:06:58.505Z,62.85
2019-03-25T10:09:31.635Z,61.81
2019-03-25T10:12:04.104Z,64.83
2019-03-25T10:14:36.953Z,65.46
2019-03-25T10:17:09.886Z,67.77
2019-03-25T10:19:42.240Z,69.36
2019-03-25T10:22:14.797Z,70.95
2019-03-25T10:24:46.991Z,72.32
2019-03-25T10:27:19.343Z,72.66
2019-03-25T10:29:51.649Z,71.78
2019-03-25T10:32:24.153Z,71.79
2019-03-25T10:34:56.631Z,71.23
2019-03-25T10:37:29.728Z,71.33
2019-03-25T10:40:02.006Z,70.14
2019-03-25T10:42:34.859Z,69.64
2019-03-25T10:45:07.851Z,68.72
2019-03-25T10:47:40.535Z,68.30
2019-03-25T10:50:13.415Z,68.13
2019-03-25T10:52:46.301Z,67.19
2019-03-25T10:55:19.020Z,65.96
2019-03-25T10:57:51.506Z,64.82
2019-03-25T11:00:24.743Z,63.74
2019-03-25T11:02:57.745Z,61.80
2019-03-25T11:05:30.319Z,59.18
2019-03-25T11:08:03.002Z,60.25
2019-03-25T11:10:35.464Z,59.72
2019-03-25T11:13:09.451Z,58.48
2019-03-25T11:15:41.898Z,58.67
2019-03-25T11:18:14.554Z,58.56
2019-03-25T11:20:47.048Z,56.68
2019-03-25T11:23:20.276Z,54.08
2019-03-25T11:25:52.578Z,54.20
2019-03-25T11:28:25.217Z,53.63
2019-03-25T11:30:59.344Z,54.00
2019-03-25T11:33:36.522Z,54.47
2019-03-25T11:36:08.880Z,51.46
2019-03-25T11:38:41.232Z,50.44
2019-03-25T11:41:13.982Z,50.43
2019-03-25T11:43:46.611Z,51.12
2019-03-25T11:46:20.051Z,48.03
2019-03-25T11:48:52.703Z,49.16
2019-03-25T11:51:25.344Z,50.07
2019-03-25T11:53:58.682Z,47.84
2019-03-25T11:56:31.080Z,48.08
2019-03-25T11:59:04.521Z,49.06
2019-03-25T12:01:38.053Z,47.98
2019-03-25T12:04:10.649Z,48.64
2019-03-25T12:06:43.079Z,48.15
2019-03-25T12:09:15.595Z,48.87
2019-03-25T12:11:47.984Z,48.62
2019-03-25T12:14:20.412Z,48.87
2019-03-25T12:16:52.716Z,48.99
2019-03-25T12:19:25.333Z,49.12
2019-03-25T12:21:58.049Z,49.44
2019-03-25T12:24:30.357Z,48.78
2019-03-25T12:27:02.759Z,49.53
2019-03-25T12:29:35.316Z,49.35
2019-03-25T12:32:07.698Z,49.83
2019-03-25T12:34:43.208Z,49.62
2019-03-25T12:37:15.606Z,50.02
2019-03-25T12:39:47.949Z,51.26
2019-03-25T12:42:20.158Z,53.99
2019-03-25T12:44:52.855Z,57.20
2019-03-25T12:47:25.643Z,59.96
2019-03-25T12:49:58.350Z,61.47
2019-03-25T12:52:30.563Z,62.38
2019-03-25T12:55:03.072Z,65.13
2019-03-25T12:57:35.517Z,72.66
2019-03-25T13:00:08.924Z,77.64
2019-03-25T13:02:41.203Z,80.30
2019-03-25T13:05:14.057Z,81.65
2019-03-25T13:07:47.407Z,83.81
2019-03-25T13:10:19.871Z,83.92
2019-03-25T13:12:52.177Z,83.64
2019-03-25T13:15:25.098Z,84.13
2019-03-25T13:17:59.749Z,83.60
2019-03-25T13:20:32.110Z,83.97
2019-03-25T13:23:04.834Z,81.01
2019-03-25T13:25:39.520Z,82.66
2019-03-25T13:28:12.185Z,80.34
2019-03-25T13:30:44.563Z,81.60
2019-03-25T13:33:17.183Z,81.64
2019-03-25T13:35:50.980Z,78.61
2019-03-25T13:38:25.297Z,78.60
2019-03-25T13:40:57.875Z,76.62
2019-03-25T13:43:31.378Z,77.57
2019-03-25T13:46:05.612Z,77.57
2019-03-25T13:48:38.146Z,77.77
2019-03-25T13:51:10.573Z,79.43
2019-03-25T13:53:42.953Z,77.82
2019-03-25T13:56:16.173Z,78.09
2019-03-25T13:58:49.302Z,78.09
2019-03-25T14:01:22.072Z,78.10
2019-03-25T14:03:54.442Z,78.38
2019-03-25T14:06:26.736Z,77.13
2019-03-25T14:08:58.895Z,77.43
2019-03-25T14:11:32.343Z,77.05
2019-03-25T14:14:04.602Z,74.77
2019-03-25T14:16:36.813Z,74.12
2019-03-25T14:19:11.556Z,74.26
2019-03-25T14:21:44.087Z,74.89
2019-03-25T14:24:18.320Z,73.80
2019-03-25T14:26:50.590Z,73.93
2019-03-25T14:29:24.969Z,73.54
2019-03-25T14:31:57.255Z,73.24
2019-03-25T14:34:29.945Z,73.93
2019-03-25T14:37:02.396Z,74.05
2019-03-25T14:39:34.988Z,73.99
2019-03-25T14:42:07.460Z,74.40
2019-03-25T14:44:41.057Z,74.29
2019-03-25T14:47:13.831Z,74.68
2019-03-25T14:49:46.599Z,73.46
2019-03-25T14:52:19.961Z,73.21
2019-03-25T14:54:54.064Z,72.27
2019-03-25T14:57:26.382Z,72.04
2019-03-25T14:59:58.914Z,71.65
2019-03-25T15:02:33.186Z,70.49
2019-03-25T15:05:05.676Z,71.14
2019-03-25T15:07:38.083Z,71.41
2019-03-25T15:10:11.082Z,71.80
2019-03-25T15:12:43.427Z,72.89
2019-03-25T15:15:15.753Z,72.99
2019-03-25T15:17:48.435Z,73.57
2019-03-25T15:20:21.723Z,73.75
2019-03-25T15:22:54.050Z,74.34
2019-03-25T15:25:26.296Z,74.60
2019-03-25T15:27:59.171Z,74.35
2019-03-25T15:30:36.154Z,74.15
2019-03-25T15:33:06.919Z,73.69
2019-03-25T15:35:39.491Z,73.96
2019-03-25T15:38:11.945Z,74.44
2019-03-25T15:40:44.738Z,74.93
2019-03-25T15:43:17.144Z,75.63
2019-03-25T15:45:52.186Z,75.76
2019-03-25T15:48:24.851Z,75.76
2019-03-25T15:50:57.668Z,76.38
2019-03-25T15:53:30.123Z,76.40
2019-03-25T15:56:02.876Z,78.23
2019-03-25T15:58:35.335Z,78.88
2019-03-25T16:01:07.770Z,79.73
2019-03-25T16:03:40.131Z,79.96
2019-03-25T16:06:12.541Z,81.95
2019-03-25T16:08:44.815Z,79.04
2019-03-25T16:11:17.098Z,83.44
2019-03-25T16:13:50.650Z,82.27
2019-03-25T16:16:25.296Z,81.59
2019-03-25T16:18:57.771Z,81.92
2019-03-25T16:21:30.002Z,81.86
2019-03-25T16:24:02.394Z,81.66
2019-03-25T16:26:34.579Z,82.72
2019-03-25T16:29:06.850Z,82.88
2019-03-25T16:31:39.110Z,83.60
2019-03-25T16:34:11.440Z,82.17
2019-03-25T16:36:43.609Z,83.25
2019-03-25T16:39:15.821Z,82.89
2019-03-25T16:41:48.099Z,82.86
2019-03-25T16:44:20.344Z,82.78
2019-03-25T16:46:52.589Z,82.78
2019-03-25T16:49:24.794Z,83.10
2019-03-25T16:51:57.040Z,83.13
2019-03-25T16:54:29.183Z,81.30
2019-03-25T16:57:01.578Z,79.85
2019-03-25T16:59:33.746Z,77.26
2019-03-25T17:02:06.432Z,77.56
2019-03-25T17:04:38.944Z,78.62
2019-03-25T17:07:11.302Z,77.57
2019-03-25T17:09:44.417Z,76.43
2019-03-25T17:12:17.185Z,75.59
2019-03-25T17:14:49.696Z,76.37
2019-03-25T17:17:22.224Z,75.83
2019-03-25T17:19:54.664Z,76.21
2019-03-25T17:22:53.488Z,76.51
2019-03-25T17:25:25.870Z,76.18
2019-03-25T17:27:58.381Z,76.64
2019-03-25T17:30:30.802Z,76.63
2019-03-25T17:33:03.347Z,77.45
2019-03-25T17:35:35.761Z,77.61
2019-03-25T17:38:08.028Z,75.25
2019-03-25T17:40:40.202Z,75.25
2019-03-25T17:43:12.416Z,76.56
2019-03-25T17:45:44.649Z,76.70
2019-03-25T17:48:17.024Z,76.28
2019-03-25T17:50:49.255Z,76.75
2019-03-25T17:53:21.867Z,76.90
2019-03-25T17:55:55.304Z,76.71
2019-03-25T17:58:27.676Z,76.76
2019-03-25T18:01:09.590Z,77.26
2019-03-25T18:03:42.004Z,76.96
2019-03-25T18:06:15.480Z,77.30
2019-03-25T18:08:47.811Z,77.79
2019-03-25T18:11:20.071Z,77.46
2019-03-25T18:13:52.517Z,78.10
2019-03-25T18:16:24.731Z,77.94
2019-03-25T18:18:58.682Z,78.53
2019-03-25T18:21:31.162Z,78.37
2019-03-25T18:24:05.220Z,78.30
2019-03-25T18:26:37.617Z,78.13
2019-03-25T18:29:10.699Z,78.11
2019-03-25T18:31:44.084Z,77.10
2019-03-25T18:34:16.472Z,76.73
2019-03-25T18:36:48.754Z,76.12
2019-03-25T18:39:20.910Z,76.50
2019-03-25T18:41:53.203Z,75.79
2019-03-25T18:44:26.146Z,76.11
2019-03-25T18:46:58.641Z,76.34
2019-03-25T18:49:30.968Z,76.10
2019-03-25T18:52:03.282Z,76.38
2019-03-25T18:54:35.473Z,76.94
2019-03-25T18:57:07.708Z,76.75
2019-03-25T18:59:39.848Z,77.10
2019-03-25T19:02:12.081Z,76.52
2019-03-25T19:04:44.446Z,76.52
2019-03-25T19:07:17.241Z,75.94
2019-03-25T19:09:51.020Z,75.88
2019-03-25T19:12:23.711Z,75.80
2019-03-25T19:14:55.958Z,75.64
2019-03-25T19:17:28.311Z,75.09
2019-03-25T19:20:00.867Z,74.91
2019-03-25T19:22:33.555Z,74.07
2019-03-25T19:25:06.823Z,74.49
2019-03-25T19:27:39.166Z,74.60
2019-03-25T19:30:11.883Z,74.72
2019-03-25T19:32:44.227Z,74.53
2019-03-25T19:35:16.731Z,73.89
2019-03-25T19:37:48.943Z,73.68
2019-03-25T19:40:21.130Z,72.95
2019-03-25T19:42:53.356Z,73.10
2019-03-25T19:45:25.585Z,73.37
2019-03-25T19:47:57.734Z,73.53
2019-03-25T19:50:29.938Z,73.02
2019-03-25T19:53:02.167Z,73.29
2019-03-25T19:55:34.348Z,73.54
2019-03-25T19:58:06.742Z,73.54
2019-03-25T20:00:42.164Z,73.96
2019-03-25T20:03:14.399Z,73.38
2019-03-25T20:05:46.570Z,73.38
2019-03-25T20:08:19.845Z,73.13
2019-03-25T20:10:52.185Z,73.69
2019-03-25T20:13:24.458Z,74.40
2019-03-25T20:15:56.746Z,73.98
2019-03-25T20:18:28.868Z,74.39
2019-03-25T20:21:01.189Z,73.31
2019-03-25T20:23:33.400Z,73.31
2019-03-25T20:26:06.490Z,73.99
2019-03-25T20:28:38.879Z,74.14
2019-03-25T20:31:11.197Z,74.12
2019-03-25T20:33:43.330Z,73.55
2019-03-25T20:36:15.634Z,73.03
2019-03-25T20:38:49.410Z,72.29
2019-03-25T20:41:22.154Z,72.60
2019-03-25T20:43:55.358Z,72.47
2019-03-25T20:46:27.756Z,72.91
2019-03-25T20:48:59.921Z,72.39
2019-03-25T20:51:32.196Z,73.12
2019-03-25T20:54:04.580Z,73.44
2019-03-25T20:56:36.884Z,72.74
2019-03-25T20:59:09.223Z,72.92
2019-03-25T21:01:41.583Z,72.83
2019-03-25T21:04:14.161Z,72.44
2019-03-25T21:06:46.461Z,72.97
2019-03-25T21:09:18.940Z,72.97
2019-03-25T21:11:51.100Z,72.55
2019-03-25T21:14:23.357Z,73.50
2019-03-25T21:16:55.883Z,73.66
2019-03-25T21:19:28.583Z,73.44
2019-03-25T21:22:00.809Z,73.08
2019-03-25T21:24:33.125Z,73.43
2019-03-25T21:27:06.506Z,73.65
2019-03-25T21:29:38.975Z,73.99
2019-03-25T21:32:11.331Z,74.43
2019-03-25T21:34:43.574Z,74.60
2019-03-25T21:37:15.815Z,74.12
2019-03-25T21:39:48.128Z,74.49
2019-03-25T21:42:20.586Z,74.39
2019-03-25T21:44:52.811Z,74.28
2019-03-25T21:47:26.499Z,74.46
2019-03-25T21:49:59.032Z,74.36
2019-03-25T21:52:31.540Z,75.26
2019-03-25T21:55:04.443Z,75.44
2019-03-25T21:57:36.795Z,75.43
2019-03-25T22:00:10.235Z,75.74
2019-03-25T22:02:42.877Z,75.86
2019-03-25T22:05:15.471Z,75.89
2019-03-25T22:07:47.893Z,76.35
2019-03-25T22:10:20.795Z,76.57
2019-03-25T22:12:53.397Z,76.73
2019-03-25T22:15:25.764Z,76.77
2019-03-25T22:17:58.942Z,76.77
2019-03-25T22:20:32.242Z,77.09
2019-03-25T22:23:05.240Z,77.31
2019-03-25T22:25:41.353Z,77.12
2019-03-25T22:28:15.577Z,76.82
2019-03-25T22:30:50.094Z,76.76
2019-03-25T22:33:26.101Z,77.00
2019-03-25T22:36:02.855Z,77.42
2019-03-25T22:38:36.628Z,77.17
2019-03-25T22:41:09.547Z,76.67
2019-03-25T22:43:42.068Z,75.87
2019-03-25T22:46:15.005Z,76.49
2019-03-25T22:48:47.717Z,76.54
2019-03-25T22:51:20.003Z,76.19
2019-03-25T22:53:55.348Z,76.35
2019-03-25T22:56:29.712Z,77.23
2019-03-25T22:59:01.944Z,77.31
2019-03-25T23:01:36.060Z,77.37
2019-03-25T23:04:10.591Z,76.99
2019-03-25T23:06:44.253Z,77.17
2019-03-25T23:09:18.441Z,77.20
2019-03-25T23:11:51.720Z,77.32
2019-03-25T23:14:27.467Z,77.28
2019-03-25T23:17:00.034Z,77.44
2019-03-25T23:19:33.536Z,77.58
2019-03-25T23:22:07.632Z,77.18
2019-03-25T23:24:40.907Z,77.18
2019-03-25T23:27:16.113Z,77.46
2019-03-25T23:29:50.040Z,77.28
2019-03-25T23:32:26.195Z,77.12
2019-03-25T23:35:00.410Z,77.20
2019-03-25T23:37:33.457Z,77.22
2019-03-25T23:40:07.264Z,77.61
2019-03-25T23:42:41.500Z,79.26
2019-03-25T23:45:15.802Z,81.00
2019-03-25T23:47:50.441Z,82.27
2019-03-25T23:50:25.863Z,82.68
2019-03-25T23:52:59.390Z,82.96
2019-03-25T23:55:32.605Z,82.86
2019-03-25T23:58:05.402Z,83.08
